createdAt,value
2022-12-15T00:02:18.256Z,36.17
2022-12-15T00:05:03.318Z,36.93
2022-12-15T00:07:48.684Z,37.60
2022-12-15T00:10:34.052Z,38.00
2022-12-15T00:13:19.430Z,37.47
2022-12-15T00:16:05.572Z,40.57
2022-12-15T00:18:50.729Z,40.30
2022-12-15T00:21:36.136Z,37.10
2022-12-15T00:24:21.494Z,41.87
2022-12-15T00:27:06.937Z,43.43
2022-12-15T00:29:52.338Z,43.10
2022-12-15T00:32:37.622Z,43.43
2022-12-15T00:35:23.190Z,40.43
2022-12-15T00:38:08.525Z,39.33
2022-12-15T00:40:35.156Z,41.77
2022-12-15T00:43:01.734Z,40.13
2022-12-15T00:45:48.272Z,45.03
2022-12-15T00:48:15.143Z,39.03
2022-12-15T00:50:53.443Z,39.40
2022-12-15T00:53:39.976Z,42.50
2022-12-15T00:56:25.935Z,40.03
2022-12-15T00:59:11.669Z,37.17
2022-12-15T01:01:57.210Z,41.40
2022-12-15T01:04:42.428Z,38.30
2022-12-15T01:07:27.780Z,39.77
2022-12-15T01:10:13.255Z,39.90
2022-12-15T01:12:58.666Z,42.63
2022-12-15T01:15:44.280Z,41.07
2022-12-15T01:18:29.314Z,37.20
2022-12-15T01:21:00.681Z,38.10
2022-12-15T01:23:27.654Z,36.83
2022-12-15T01:25:55.011Z,37.13
2022-12-15T01:28:22.864Z,39.70
2022-12-15T01:30:50.354Z,38.97
2022-12-15T01:33:18.182Z,43.30
2022-12-15T01:35:45.131Z,41.43
2022-12-15T01:38:11.997Z,35.20
2022-12-15T01:40:50.042Z,37.97
2022-12-15T01:43:22.357Z,38.37
2022-12-15T01:46:04.674Z,40.47
2022-12-15T01:48:59.648Z,41.47
2022-12-15T01:51:39.769Z,38.17
2022-12-15T01:54:11.347Z,42.10
2022-12-15T01:56:41.822Z,39.83
2022-12-15T01:59:12.401Z,41.77
2022-12-15T02:01:39.321Z,40.57
2022-12-15T02:04:06.727Z,41.40
2022-12-15T02:06:33.593Z,40.70
2022-12-15T02:09:01.209Z,41.33
2022-12-15T02:11:27.796Z,42.27
2022-12-15T02:14:05.737Z,39.27
2022-12-15T02:16:55.163Z,39.87
2022-12-15T02:20:05.264Z,38.83
2022-12-15T02:23:10.437Z,38.50
2022-12-15T02:25:59.143Z,40.10
2022-12-15T02:28:50.928Z,38.53
2022-12-15T02:31:50.569Z,42.80
2022-12-15T02:34:49.732Z,36.93
2022-12-15T02:37:42.769Z,36.83
2022-12-15T02:40:11.290Z,37.23
2022-12-15T02:42:50.169Z,34.07
2022-12-15T02:45:28.616Z,35.40
2022-12-15T02:48:23.611Z,37.80
2022-12-15T02:51:28.204Z,32.70
2022-12-15T02:54:18.887Z,36.73
2022-12-15T02:57:25.959Z,34.53
2022-12-15T02:59:59.044Z,34.23
2022-12-15T03:02:28.725Z,32.70
2022-12-15T03:04:55.724Z,35.40
2022-12-15T03:07:23.738Z,34.90
2022-12-15T03:09:50.345Z,35.53
2022-12-15T03:12:16.992Z,34.97
2022-12-15T03:14:44.149Z,35.57
2022-12-15T03:17:10.821Z,37.00
2022-12-15T03:19:37.435Z,31.63
2022-12-15T03:22:04.317Z,31.83
2022-12-15T03:24:31.119Z,32.03
2022-12-15T03:26:57.746Z,33.63
2022-12-15T03:29:24.406Z,35.57
2022-12-15T03:31:51.028Z,32.80
2022-12-15T03:34:18.066Z,29.90
2022-12-15T03:36:44.652Z,33.80
2022-12-15T03:39:11.271Z,32.87
2022-12-15T03:41:37.887Z,33.77
2022-12-15T03:44:04.867Z,32.40
2022-12-15T03:46:31.468Z,32.53
2022-12-15T03:48:58.558Z,32.73
2022-12-15T03:51:25.262Z,35.83
2022-12-15T03:53:52.101Z,31.27
2022-12-15T03:56:18.660Z,41.37
2022-12-15T03:58:45.292Z,41.77
2022-12-15T04:01:20.918Z,46.43
2022-12-15T04:03:47.741Z,47.40
2022-12-15T04:06:14.416Z,35.30
2022-12-15T04:08:41.028Z,44.17
2022-12-15T04:11:07.610Z,40.40
2022-12-15T04:13:34.573Z,42.83
2022-12-15T04:16:04.583Z,38.47
2022-12-15T04:18:31.444Z,38.10
2022-12-15T04:20:58.049Z,38.13
2022-12-15T04:23:24.792Z,36.90
2022-12-15T04:26:10.311Z,38.17
2022-12-15T04:28:55.618Z,35.57
2022-12-15T04:31:48.127Z,36.27
2022-12-15T04:34:37.642Z,35.83
2022-12-15T04:37:26.091Z,38.03
2022-12-15T04:40:13.491Z,34.70
2022-12-15T04:43:03.513Z,39.73
2022-12-15T04:45:49.013Z,36.10
2022-12-15T04:48:34.460Z,33.90
2022-12-15T04:51:19.899Z,31.33
2022-12-15T04:54:05.125Z,33.13
2022-12-15T04:56:51.116Z,32.27
2022-12-15T04:59:36.705Z,32.33
2022-12-15T05:02:22.166Z,36.47
2022-12-15T05:05:08.466Z,35.63
2022-12-15T05:07:53.792Z,36.30
2022-12-15T05:10:39.174Z,33.47
2022-12-15T05:13:26.029Z,32.37
2022-12-15T05:16:11.465Z,32.87
2022-12-15T05:18:56.852Z,30.63
2022-12-15T05:21:42.283Z,33.03
2022-12-15T05:24:27.690Z,37.10
2022-12-15T05:27:13.199Z,35.80
2022-12-15T05:29:58.667Z,30.37
2022-12-15T05:32:25.332Z,32.77
2022-12-15T05:34:51.952Z,32.83
2022-12-15T05:37:18.610Z,31.67
2022-12-15T05:39:45.152Z,30.67
2022-12-15T05:42:11.860Z,31.13
2022-12-15T05:44:38.465Z,30.87
2022-12-15T05:47:05.121Z,29.67
2022-12-15T05:49:31.846Z,31.77
2022-12-15T05:51:58.398Z,31.70
2022-12-15T05:54:25.464Z,34.03
2022-12-15T05:56:52.113Z,32.60
2022-12-15T05:59:19.343Z,31.77
2022-12-15T06:01:46.259Z,32.23
2022-12-15T06:04:13.255Z,31.80
2022-12-15T06:06:40.621Z,35.07
2022-12-15T06:09:08.419Z,32.83
2022-12-15T06:11:35.142Z,33.77
2022-12-15T06:14:02.609Z,32.93
2022-12-15T06:16:29.299Z,35.17
2022-12-15T06:18:58.761Z,31.50
2022-12-15T06:21:31.721Z,31.80
2022-12-15T06:23:58.569Z,28.43
2022-12-15T06:26:28.146Z,30.03
2022-12-15T06:28:56.974Z,32.17
2022-12-15T06:31:25.435Z,29.90
2022-12-15T06:33:59.208Z,27.23
2022-12-15T06:36:28.620Z,29.40
2022-12-15T06:39:02.623Z,26.47
2022-12-15T06:41:32.232Z,30.10
2022-12-15T06:43:59.593Z,30.07
2022-12-15T06:46:28.311Z,30.60
2022-12-15T06:48:55.354Z,29.63
2022-12-15T06:51:22.382Z,27.50
2022-12-15T06:53:49.109Z,28.03
2022-12-15T06:56:20.080Z,30.23
2022-12-15T06:58:51.072Z,31.10
2022-12-15T07:01:19.496Z,31.13
2022-12-15T07:03:46.417Z,30.27
2022-12-15T07:06:15.516Z,30.00
2022-12-15T07:08:43.121Z,29.63
2022-12-15T07:11:12.800Z,32.37
2022-12-15T07:13:40.129Z,31.67
2022-12-15T07:16:08.107Z,35.03
2022-12-15T07:18:34.876Z,31.23
2022-12-15T07:21:06.464Z,32.63
2022-12-15T07:23:53.236Z,32.83
2022-12-15T07:26:20.944Z,31.43
2022-12-15T07:28:47.575Z,31.33
2022-12-15T07:31:15.452Z,30.37
2022-12-15T07:33:42.398Z,31.93
2022-12-15T07:36:09.388Z,29.53
2022-12-15T07:38:36.859Z,28.73
2022-12-15T07:41:05.940Z,29.60
2022-12-15T07:43:33.411Z,27.07
2022-12-15T07:46:00.507Z,28.87
2022-12-15T07:48:27.628Z,28.57
2022-12-15T07:51:02.813Z,30.93
2022-12-15T07:53:35.491Z,28.50
2022-12-15T07:56:09.067Z,28.30
2022-12-15T07:58:37.359Z,32.93
2022-12-15T08:01:06.860Z,29.37
2022-12-15T08:03:34.638Z,28.13
2022-12-15T08:06:10.501Z,29.27
2022-12-15T08:08:37.727Z,26.97
2022-12-15T08:11:08.516Z,25.77
2022-12-15T08:14:02.093Z,29.77
2022-12-15T08:16:22.425Z,29.00
2022-12-15T08:18:49.153Z,26.67
2022-12-15T08:21:16.034Z,29.97
2022-12-15T08:23:42.666Z,29.07
2022-12-15T08:26:12.550Z,25.67
2022-12-15T08:28:40.502Z,25.17
2022-12-15T08:31:09.724Z,25.43
2022-12-15T08:33:37.527Z,28.30
2022-12-15T08:36:08.766Z,23.87
2022-12-15T08:38:38.479Z,26.00
2022-12-15T08:41:14.042Z,24.80
2022-12-15T08:43:47.549Z,31.13
2022-12-15T08:46:20.294Z,28.23
2022-12-15T08:48:47.126Z,31.47
2022-12-15T08:51:14.973Z,26.53
2022-12-15T08:53:41.724Z,26.30
2022-12-15T08:56:15.710Z,25.70
2022-12-15T08:58:43.431Z,27.63
2022-12-15T09:01:19.021Z,27.47
2022-12-15T09:03:50.334Z,26.07
2022-12-15T09:06:21.714Z,26.07
2022-12-15T09:08:50.134Z,25.23
2022-12-15T09:11:17.552Z,31.13
2022-12-15T09:13:44.480Z,26.03
2022-12-15T09:16:18.203Z,27.60
2022-12-15T09:18:47.878Z,30.63
2022-12-15T09:21:15.452Z,25.83
2022-12-15T09:23:42.848Z,26.33
2022-12-15T09:26:12.639Z,24.53
2022-12-15T09:28:39.490Z,26.77
2022-12-15T09:31:11.654Z,25.47
2022-12-15T09:33:39.973Z,27.50
2022-12-15T09:36:07.094Z,28.37
2022-12-15T09:38:35.209Z,27.57
2022-12-15T09:41:17.437Z,29.57
2022-12-15T09:43:58.556Z,30.80
2022-12-15T09:46:50.243Z,28.00
2022-12-15T09:49:50.789Z,27.67
2022-12-15T09:52:27.093Z,28.93
2022-12-15T09:54:54.042Z,27.10
2022-12-15T09:57:46.608Z,26.73
2022-12-15T10:00:22.113Z,29.13
2022-12-15T10:03:00.848Z,28.87
2022-12-15T10:06:07.210Z,28.13
2022-12-15T10:08:30.388Z,27.83
2022-12-15T10:11:04.310Z,28.10
2022-12-15T10:13:52.266Z,30.27
2022-12-15T10:16:40.112Z,33.63
2022-12-15T10:19:19.627Z,25.60
2022-12-15T10:21:50.619Z,29.37
2022-12-15T10:25:07.522Z,40.37
2022-12-15T10:27:24.382Z,28.27
2022-12-15T10:30:01.250Z,30.80
2022-12-15T10:33:01.630Z,29.20
2022-12-15T10:35:37.322Z,25.53
2022-12-15T10:38:06.856Z,27.57
2022-12-15T10:40:50.847Z,26.87
2022-12-15T10:43:28.320Z,26.27
2022-12-15T10:46:13.787Z,28.03
2022-12-15T10:48:42.286Z,24.70
2022-12-15T10:51:28.974Z,25.73
2022-12-15T10:54:10.032Z,26.20
2022-12-15T10:56:57.839Z,30.27
2022-12-15T10:59:32.930Z,27.77
2022-12-15T11:02:24.640Z,27.27
2022-12-15T11:05:15.921Z,29.30
2022-12-15T11:07:44.534Z,26.93
2022-12-15T11:10:22.261Z,26.00
2022-12-15T11:13:16.314Z,28.93
2022-12-15T11:15:50.841Z,24.43
2022-12-15T11:18:36.459Z,28.40
2022-12-15T11:21:11.071Z,27.33
2022-12-15T11:23:46.697Z,27.40
2022-12-15T11:26:35.767Z,25.87
2022-12-15T11:29:15.651Z,25.23
2022-12-15T11:31:44.267Z,27.87
2022-12-15T11:34:18.253Z,26.97
2022-12-15T11:37:07.539Z,23.53
2022-12-15T11:40:05.254Z,28.30
2022-12-15T11:42:55.192Z,25.90
2022-12-15T11:45:59.476Z,24.63
2022-12-15T11:48:41.018Z,24.23
2022-12-15T11:51:23.373Z,23.43
2022-12-15T11:54:27.534Z,23.53
2022-12-15T11:57:05.870Z,25.73
2022-12-15T11:59:47.201Z,24.90
2022-12-15T12:02:45.437Z,26.17
2022-12-15T12:05:24.133Z,28.23
2022-12-15T12:08:02.725Z,26.10
2022-12-15T12:10:44.159Z,27.27
2022-12-15T12:13:28.687Z,25.83
2022-12-15T12:16:25.703Z,26.77
2022-12-15T12:18:57.019Z,25.97
2022-12-15T12:21:28.182Z,25.33
2022-12-15T12:24:01.833Z,25.30
2022-12-15T12:26:46.192Z,29.73
2022-12-15T12:29:52.721Z,24.37
2022-12-15T12:32:50.410Z,26.47
2022-12-15T12:35:32.363Z,26.37
2022-12-15T12:38:05.672Z,25.50
2022-12-15T12:40:41.223Z,27.03
2022-12-15T12:43:33.301Z,24.57
2022-12-15T12:46:19.568Z,28.53
2022-12-15T12:48:56.056Z,26.27
2022-12-15T12:51:24.974Z,30.90
2022-12-15T12:53:52.199Z,26.07
2022-12-15T12:56:35.260Z,26.03
2022-12-15T12:59:08.614Z,28.83
2022-12-15T13:01:38.387Z,28.40
2022-12-15T13:04:11.915Z,27.20
2022-12-15T13:06:41.673Z,26.60
2022-12-15T13:09:17.278Z,25.10
2022-12-15T13:11:52.779Z,25.87
2022-12-15T13:14:30.603Z,28.37
2022-12-15T13:20:00.339Z,25.43
2022-12-15T13:22:35.662Z,25.77
2022-12-15T13:25:23.133Z,31.03
2022-12-15T13:28:06.285Z,24.63
2022-12-15T13:30:33.204Z,26.60
2022-12-15T13:33:18.724Z,32.07
2022-12-15T13:35:46.833Z,23.93
2022-12-15T13:38:19.097Z,25.30
2022-12-15T13:40:53.902Z,25.80
2022-12-15T13:43:26.225Z,28.53
2022-12-15T13:45:59.029Z,27.40
2022-12-15T13:48:40.186Z,26.63
2022-12-15T13:51:32.977Z,25.07
2022-12-15T13:54:04.308Z,26.27
2022-12-15T13:56:51.016Z,25.53
2022-12-15T13:59:33.477Z,25.13
2022-12-15T14:02:00.327Z,24.37
2022-12-15T14:04:27.313Z,28.73
2022-12-15T14:07:00.676Z,26.97
2022-12-15T14:09:33.853Z,26.97
2022-12-15T14:12:04.250Z,30.30
2022-12-15T14:14:36.056Z,28.77
2022-12-15T14:17:11.875Z,28.30
2022-12-15T14:19:44.432Z,27.67
2022-12-15T14:22:28.475Z,28.93
2022-12-15T14:25:14.082Z,25.53
2022-12-15T14:27:41.018Z,27.40
2022-12-15T14:30:14.419Z,29.83
2022-12-15T14:32:43.906Z,30.23
2022-12-15T14:35:18.676Z,27.13
2022-12-15T14:37:45.754Z,25.70
2022-12-15T14:40:16.243Z,25.63
2022-12-15T14:42:43.988Z,26.27
2022-12-15T14:45:32.411Z,27.17
2022-12-15T14:48:40.513Z,27.63
2022-12-15T14:50:54.577Z,28.30
2022-12-15T14:53:23.311Z,28.43
2022-12-15T14:55:50.121Z,23.77
2022-12-15T14:58:32.149Z,30.40
2022-12-15T15:01:00.014Z,28.07
2022-12-15T15:03:39.018Z,24.37
2022-12-15T15:06:34.395Z,27.07
2022-12-15T15:09:23.071Z,24.93
2022-12-15T15:11:56.744Z,28.47
2022-12-15T15:14:38.465Z,28.37
2022-12-15T15:17:09.644Z,27.70
2022-12-15T15:19:41.767Z,25.97
2022-12-15T15:22:26.896Z,25.27
2022-12-15T15:24:53.587Z,28.13
2022-12-15T15:27:39.567Z,31.13
2022-12-15T15:30:22.144Z,31.43
2022-12-15T15:33:08.211Z,27.07
2022-12-15T15:35:35.038Z,26.57
2022-12-15T15:38:07.000Z,29.03
2022-12-15T15:40:33.562Z,28.40
2022-12-15T15:43:00.317Z,28.17
2022-12-15T15:45:26.964Z,22.97
2022-12-15T15:47:56.033Z,26.70
2022-12-15T15:50:28.949Z,24.83
2022-12-15T15:52:56.683Z,26.17
2022-12-15T15:55:36.140Z,28.57
2022-12-15T15:58:10.766Z,25.67
2022-12-15T16:00:37.546Z,26.77
2022-12-15T16:03:04.293Z,24.50
2022-12-15T16:05:31.048Z,26.30
2022-12-15T16:07:59.667Z,28.40
2022-12-15T16:10:26.396Z,26.87
2022-12-15T16:12:55.341Z,28.30
2022-12-15T16:15:26.118Z,28.23
2022-12-15T16:17:53.928Z,27.83
2022-12-15T16:20:22.698Z,28.60
2022-12-15T16:22:57.941Z,26.93
2022-12-15T16:25:48.494Z,27.90
2022-12-15T16:28:26.487Z,25.40
2022-12-15T16:30:53.264Z,27.03
2022-12-15T16:33:20.333Z,26.77
2022-12-15T16:35:48.308Z,28.50
2022-12-15T16:38:25.328Z,25.50
2022-12-15T16:40:52.589Z,25.27
2022-12-15T16:43:26.940Z,28.97
2022-12-15T16:45:55.906Z,27.07
2022-12-15T16:48:22.727Z,26.97
2022-12-15T16:50:59.088Z,27.63
2022-12-15T16:53:30.303Z,26.83
2022-12-15T16:55:59.448Z,28.30
2022-12-15T16:58:28.597Z,25.77
2022-12-15T17:00:55.646Z,24.67
2022-12-15T17:03:25.725Z,25.17
2022-12-15T17:05:55.631Z,27.13
2022-12-15T17:08:31.713Z,23.67
2022-12-15T17:10:58.969Z,25.27
2022-12-15T17:13:39.048Z,24.70
2022-12-15T17:16:14.167Z,26.07
2022-12-15T17:18:42.805Z,27.00
2022-12-15T17:21:26.559Z,25.30
2022-12-15T17:23:56.951Z,28.07
2022-12-15T17:26:29.657Z,28.00
2022-12-15T17:29:00.957Z,26.80
2022-12-15T17:31:34.882Z,27.10
2022-12-15T17:34:34.731Z,22.90
2022-12-15T17:37:04.286Z,29.70
2022-12-15T17:39:32.707Z,27.57
2022-12-15T17:42:31.502Z,28.67
2022-12-15T17:44:58.204Z,28.90
2022-12-15T17:47:25.363Z,33.63
2022-12-15T17:49:52.024Z,34.77
2022-12-15T17:52:34.212Z,29.40
2022-12-15T17:55:03.209Z,34.50
2022-12-15T17:57:31.876Z,32.37
2022-12-15T17:59:59.546Z,31.90
2022-12-15T18:02:26.312Z,32.97
2022-12-15T18:04:54.067Z,31.93
2022-12-15T18:07:22.873Z,32.93
2022-12-15T18:09:51.863Z,31.87
2022-12-15T18:12:24.382Z,28.77
2022-12-15T18:14:52.087Z,33.37
2022-12-15T18:17:19.199Z,29.97
2022-12-15T18:19:45.840Z,30.23
2022-12-15T18:22:17.860Z,32.17
2022-12-15T18:24:44.449Z,33.20
2022-12-15T18:27:27.227Z,31.13
2022-12-15T18:29:54.548Z,28.97
2022-12-15T18:32:26.484Z,30.53
2022-12-15T18:34:54.124Z,28.80
2022-12-15T18:37:23.395Z,33.63
2022-12-15T18:39:50.644Z,29.93
2022-12-15T18:42:21.637Z,30.80
2022-12-15T18:44:50.386Z,29.40
2022-12-15T18:47:19.114Z,30.00
2022-12-15T18:49:46.465Z,33.00
2022-12-15T18:52:22.614Z,30.43
2022-12-15T18:54:51.172Z,32.13
2022-12-15T18:57:36.272Z,30.80
2022-12-15T19:00:17.979Z,28.90
2022-12-15T19:02:44.920Z,31.50
2022-12-15T19:05:27.614Z,31.87
2022-12-15T19:07:57.764Z,31.67
2022-12-15T19:10:29.659Z,31.63
2022-12-15T19:12:58.664Z,29.00
2022-12-15T19:15:26.043Z,26.93
2022-12-15T19:18:11.738Z,28.43
2022-12-15T19:20:57.095Z,28.17
2022-12-15T19:23:26.819Z,29.97
2022-12-15T19:25:54.157Z,26.33
2022-12-15T19:28:23.147Z,27.87
2022-12-15T19:30:50.449Z,33.50
2022-12-15T19:33:17.905Z,27.13
2022-12-15T19:35:51.368Z,29.33
2022-12-15T19:38:22.515Z,29.20
2022-12-15T19:40:53.108Z,27.27
2022-12-15T19:43:20.760Z,27.83
2022-12-15T19:45:47.858Z,27.77
2022-12-15T19:48:18.691Z,30.13
2022-12-15T19:50:51.698Z,29.17
2022-12-15T19:53:25.427Z,27.60
2022-12-15T19:55:54.560Z,30.43
2022-12-15T19:58:30.558Z,30.33
2022-12-15T20:01:00.304Z,31.87
2022-12-15T20:03:28.306Z,30.50
2022-12-15T20:05:57.193Z,35.07
2022-12-15T20:08:26.727Z,31.10
2022-12-15T20:10:54.535Z,32.07
2022-12-15T20:13:22.925Z,31.13
2022-12-15T20:15:49.643Z,28.87
2022-12-15T20:18:16.226Z,30.60
2022-12-15T20:20:45.549Z,30.07
2022-12-15T20:23:21.770Z,32.50
2022-12-15T20:25:48.467Z,30.30
2022-12-15T20:28:29.551Z,30.97
2022-12-15T20:30:57.749Z,28.57
2022-12-15T20:33:24.590Z,29.93
2022-12-15T20:35:54.446Z,28.77
2022-12-15T20:38:31.975Z,31.00
2022-12-15T20:41:00.146Z,31.70
2022-12-15T20:43:28.362Z,30.87
2022-12-15T20:46:03.547Z,27.57
2022-12-15T20:48:30.684Z,25.47
2022-12-15T20:50:57.437Z,27.37
2022-12-15T20:53:26.671Z,30.13
2022-12-15T20:55:55.281Z,30.10
2022-12-15T20:58:32.883Z,27.50
2022-12-15T21:01:00.183Z,27.70
2022-12-15T21:03:30.521Z,29.90
2022-12-15T21:05:58.820Z,28.77
2022-12-15T21:08:29.809Z,29.73
2022-12-15T21:11:01.939Z,27.53
2022-12-15T21:13:33.157Z,30.47
2022-12-15T21:16:00.262Z,29.60
2022-12-15T21:19:10.899Z,29.60
2022-12-15T21:21:27.950Z,29.07
2022-12-15T21:23:55.679Z,31.10
2022-12-15T21:26:23.693Z,31.23
2022-12-15T21:28:55.590Z,29.87
2022-12-15T21:31:22.841Z,31.97
2022-12-15T21:33:49.677Z,30.97
2022-12-15T21:36:18.602Z,30.43
2022-12-15T21:38:48.406Z,32.97
2022-12-15T21:41:17.611Z,30.60
2022-12-15T21:43:44.795Z,33.13
2022-12-15T21:46:16.634Z,31.30
2022-12-15T21:49:02.977Z,35.17
2022-12-15T21:51:36.307Z,28.43
2022-12-15T21:54:03.661Z,27.17
2022-12-15T21:56:30.263Z,30.07
2022-12-15T21:58:59.000Z,26.77
2022-12-15T22:01:29.655Z,33.40
2022-12-15T22:03:59.522Z,30.77
2022-12-15T22:06:28.278Z,28.77
2022-12-15T22:08:58.567Z,29.57
2022-12-15T22:11:30.107Z,28.13
2022-12-15T22:13:59.393Z,31.37
2022-12-15T22:16:26.121Z,29.83
2022-12-15T22:18:57.496Z,29.40
2022-12-15T22:21:24.935Z,32.17
2022-12-15T22:23:52.423Z,32.97
2022-12-15T22:26:28.360Z,29.77
2022-12-15T22:28:56.358Z,29.57
2022-12-15T22:31:23.280Z,31.37
2022-12-15T22:33:49.889Z,31.90
2022-12-15T22:36:16.456Z,28.10
2022-12-15T22:38:44.515Z,28.60
2022-12-15T22:41:22.263Z,31.27
2022-12-15T22:43:53.712Z,30.43
2022-12-15T22:46:24.135Z,29.00
2022-12-15T22:48:52.746Z,30.27
2022-12-15T22:51:21.817Z,27.77
2022-12-15T22:53:48.495Z,30.67
2022-12-15T22:56:39.461Z,28.83
2022-12-15T22:59:10.491Z,32.50
2022-12-15T23:01:37.515Z,27.10
2022-12-15T23:04:05.549Z,30.80
2022-12-15T23:06:32.212Z,34.70
2022-12-15T23:08:58.912Z,31.17
2022-12-15T23:11:37.706Z,34.30
2022-12-15T23:14:10.626Z,29.30
2022-12-15T23:16:37.912Z,28.77
2022-12-15T23:19:05.254Z,32.20
2022-12-15T23:21:32.350Z,34.27
2022-12-15T23:23:59.113Z,31.37
2022-12-15T23:26:26.039Z,33.23
2022-12-15T23:28:55.178Z,34.20
2022-12-15T23:31:22.097Z,36.03
2022-12-15T23:33:49.806Z,30.80
2022-12-15T23:36:18.981Z,35.37
2022-12-15T23:38:46.116Z,30.30
2022-12-15T23:41:17.757Z,31.83
2022-12-15T23:43:45.042Z,30.70
2022-12-15T23:46:11.858Z,34.63
2022-12-15T23:48:41.767Z,34.53
2022-12-15T23:51:14.346Z,41.57
2022-12-15T23:53:42.206Z,66.37
2022-12-15T23:56:24.295Z,55.43
2022-12-15T23:58:56.520Z,59.60
